Time;durP1;ratioP1;P1;durP2;ratioP2;P2;SDS_P1;SDS_P2;PMS_P1;PMS_P2;Temp;Humidity;BMP_temperature;BMP_pressure;BME280_temperature;BME280_humidity;BME280_pressure;Samples;Min_cycle;Max_cycle;Signal;HPM_P1;HPM_P2
2021/09/18 10:18:16;;;;;;;;;15.60;15.60;;;;;22.03;52.76;101004.81;5136372;22;25648335;-91
2021/09/18 11:43:56;;;;;;;;;165.67;165.67;;;;;23.86;49.73;100944.63;6350011;22;1753812;-91
2021/09/18 11:46:27;;;;;;;;;;;;;;;23.90;49.03;100937.00;6319967;22;44744;-90
2021/09/18 11:48:57;;;;;;;;;;;;;;;23.91;49.24;100923.25;6346831;22;44740;-91
2021/09/18 11:51:25;;;;;;;;;;;;;;;23.94;49.26;100924.78;6346282;22;44918;-92
2021/09/18 11:54:08;;;;;;;;;;;;;;;23.98;48.92;100926.13;6319420;22;45004;-92
2021/09/18 11:56:40;;;;;;;;;;;;;;;24.06;47.99;100927.97;6311836;22;44761;-92
2021/09/18 11:59:11;;;;;;;;;;;;;;;24.14;49.01;100927.94;6371998;22;44611;-92
2021/09/18 12:01:38;;;;;;;;;;;;;;;24.29;48.15;100919.06;6319625;22;44892;-93
2021/09/18 12:04:09;;;;;;;;;;;;;;;24.35;46.73;100926.50;6319377;22;45122;-91
2021/09/18 12:06:37;;;;;;;;;;;;;;;24.31;48.14;100919.72;6368065;22;44746;-91
2021/09/18 12:09:07;;;;;;;;;;;;;;;24.31;49.01;100923.28;6314887;22;44769;-92
2021/09/18 12:11:39;;;;;;;;;;;;;;;24.32;49.59;100921.41;6371075;22;44759;-91
2021/09/18 12:14:08;;;;;;;;;;;;;;;24.36;48.74;100921.91;6343911;22;45096;-92
2021/09/18 12:16:35;;;;;;;;;;;;;;;24.41;47.28;100930.38;6318309;22;44606;-92
2021/09/18 12:19:07;;;;;;;;;;;;;;;24.45;48.52;100916.22;6342474;22;44818;-92
2021/09/18 12:21:33;;;;;;;;;;;;;;;24.61;48.25;100919.91;6320151;22;44886;-92
2021/09/18 12:24:22;;;;;;;;;;;;;;;24.80;47.86;100910.41;6317263;22;45200;-93
2021/09/18 12:26:50;;;;;;;;;;;;;;;25.03;47.99;100914.19;6342725;22;44761;-92
2021/09/18 12:29:18;;;;;;;;;;;;;;;25.16;46.47;100913.56;6346161;22;44622;-91
2021/09/18 12:31:47;;;;;;;;;;;;;;;25.18;47.70;100919.69;6320371;22;44857;-91
2021/09/18 12:34:18;;;;;;;;;;;;;;;25.04;46.88;100913.16;6347397;22;45147;-92
2021/09/18 12:36:49;;;;;;;;;;;;;;;24.90;48.07;100918.38;6320645;22;44725;-92
2021/09/18 12:39:24;;;;;;;;;;;;;;;24.83;48.24;100910.03;6320914;22;44626;-92
2021/09/18 12:41:54;;;;;;;;;;;;;;;24.92;48.04;100915.44;6319549;22;44941;-91
2021/09/18 12:44:22;;;;;;;;;;;;;;;25.06;47.76;100900.22;6315134;22;45143;-92
2021/09/18 12:46:51;;;;;;;;;;;;;;;25.21;48.23;100898.38;6281355;22;44705;-91
2021/09/18 12:49:18;;;;;;;;;;;;;;;25.38;46.31;100906.41;6281389;22;44642;-91
2021/09/18 12:51:45;;;;;;;;;;;;;;;25.45;46.27;100906.50;6278138;22;44812;-91
2021/09/18 12:54:17;;;;;;;;;;;;;;;25.49;46.67;100905.94;6303928;22;45171;-91
2021/09/18 12:56:44;;;;;;;;;;;;;;;25.37;45.68;100901.97;6280214;22;44691;-92
2021/09/18 12:59:40;;;;;;;;;;;;;;;25.16;47.01;100889.06;6306424;22;44748;-92
2021/09/18 13:02:05;;;;;;;;;;;;;;;24.96;47.48;100901.31;6297492;22;44974;-92
2021/09/18 13:04:34;;;;;;;;;;;;;;;24.93;47.38;100895.41;6276739;22;45213;-91
2021/09/18 13:07:06;;;;;;;;;;;;;;;25.00;48.15;100890.91;6303306;22;44704;-92
2021/09/18 13:09:33;;;;;;;;;;;;;;;25.08;46.56;100884.53;6279594;22;44790;-92
2021/09/18 13:12:07;;;;;;;;;;;;;;;25.10;46.56;100883.34;6330522;22;44868;-92
2021/09/18 13:14:39;;;;;;;;;;;;;;;25.10;47.42;100880.63;6279205;22;45148;-91
2021/09/18 13:17:07;;;;;;;;;;;;;;;25.06;47.15;100881.19;6305744;22;44754;-92
2021/09/18 13:19:52;;;;;;;;;;;;;;;24.93;45.96;100879.91;6304733;22;44722;-91
2021/09/18 13:22:23;;;;;;;;;;;;;;;24.77;46.81;100870.00;6305576;22;44867;-91
2021/09/18 13:24:48;;;;;;;;;;;;;;;24.82;46.86;100877.59;6279400;22;45549;-92
2021/09/18 13:27:19;;;;;;;;;;;;;;;24.96;47.21;100878.72;6305487;22;44721;-91
2021/09/18 13:29:45;;;;;;;;;;;;;;;25.11;46.83;100873.31;6304575;22;44658;-91
2021/09/18 13:32:11;;;;;;;;;;;;;;;25.18;46.25;100878.88;6304603;22;44762;-91
2021/09/18 13:34:42;;;;;;;;;;;;;;;25.09;46.75;100872.66;6279530;22;45062;-92
2021/09/18 13:37:10;;;;;;;;;;;;;;;24.97;46.77;100861.38;6308139;22;44735;-90
2021/09/18 13:39:36;;;;;;;;;;;;;;;25.02;46.58;100877.13;6283077;22;44716;-91
2021/09/18 13:42:02;;;;;;;;;;;;;;;24.96;46.56;100867.84;6284922;22;44833;-92
2021/09/18 13:44:30;;;;;;;;;;;;;;;24.90;46.68;100871.28;6335643;22;45131;-92
2021/09/18 13:47:06;;;;;;;;;;;;;;;24.88;46.04;100876.91;6340313;22;44681;-91
2021/09/18 13:49:37;;;;;;;;;;;;;;;24.89;46.60;100875.88;6366744;22;44648;-92
2021/09/18 13:52:04;;;;;;;;;;;;;;;24.97;47.18;100878.53;6313105;22;44845;-92
2021/09/18 13:54:30;;;;;;;;;;;;;;;25.05;45.87;100869.44;6312908;22;45308;-91
2021/09/18 13:56:58;;;;;;;;;;;;;;;25.12;45.45;100874.16;6315496;22;44621;-92
2021/09/18 13:59:27;;;;;;;;;;;;;;;25.16;45.17;100868.16;6316220;22;44608;-91
2021/09/18 14:01:55;;;;;;;;;;;;;;;25.14;46.08;100867.50;6340783;22;44841;-91
2021/09/18 14:04:24;;;;;;;;;;;;;;;25.14;46.30;100869.34;6368220;22;45441;-92
2021/09/18 14:06:53;;;;;;;;;;;;;;;25.16;45.51;100853.72;6336928;22;44673;-93
2021/09/18 14:09:23;;;;;;;;;;;;;;;25.04;45.52;100847.88;6310227;22;44698;-93
2021/09/18 14:11:48;;;;;;;;;;;;;;;24.97;46.47;100853.22;6336327;22;44927;-92
2021/09/18 14:14:17;;;;;;;;;;;;;;;24.87;46.24;100853.47;6314217;22;45173;-91
2021/09/18 14:16:51;;;;;;;;;;;;;;;24.82;46.31;100850.41;6341309;22;44776;-92
2021/09/18 14:19:22;;;;;;;;;;;;;;;24.80;45.58;100845.16;6367841;22;44615;-91
2021/09/18 14:21:50;;;;;;;;;;;;;;;24.70;46.14;100839.16;6369586;22;44773;-91
2021/09/18 14:24:17;;;;;;;;;;;;;;;24.61;46.78;100835.66;6341191;22;45261;-92
2021/09/18 14:26:43;;;;;;;;;;;;;;;24.59;46.62;100843.97;6313786;22;44881;-92
2021/09/18 14:29:11;;;;;;;;;;;;;;;24.60;45.81;100825.78;6342655;22;44752;-91
2021/09/18 14:31:46;;;;;;;;;;;;;;;24.77;46.65;100831.94;6341722;22;44861;-92
2021/09/18 14:34:18;;;;;;;;;;;;;;;24.78;46.57;100817.31;6367263;22;45244;-91
2021/09/18 14:36:47;;;;;;;;;;;;;;;24.92;45.10;100823.84;6339674;22;44749;-91
2021/09/18 14:39:14;;;;;;;;;;;;;;;25.02;46.20;100820.84;6313140;22;44694;-92
2021/09/18 14:41:44;;;;;;;;;;;;;;;24.97;46.15;100820.56;6333606;22;44714;-91
2021/09/18 14:44:09;;;;;;;;;;;;;;;24.90;45.92;100812.31;6308456;22;45234;-92
2021/09/18 14:46:37;;;;;;;;;;;;;;;24.86;46.04;100819.13;6309931;22;44803;-92
2021/09/18 14:49:03;;;;;;;;;;;;;;;24.87;46.31;100806.38;6309682;22;44736;-91
2021/09/18 14:51:31;;;;;;;;;;;;;;;25.18;46.45;100819.03;6310756;22;44845;-90
2021/09/18 14:53:57;;;;;;;;;;;;;;;25.36;45.40;100805.91;6336310;22;45135;-91
2021/09/18 14:56:31;;;;;;;;;;;;;;;25.48;45.58;100806.25;6336612;22;44708;-91
2021/09/18 14:58:57;;;;;;;;;;;;;;;25.64;45.17;100798.97;6310313;22;44590;-92
2021/09/18 15:01:25;;;;;;;;;;;;;;;25.72;44.83;100807.03;6337239;22;44811;-91
2021/09/18 15:03:51;;;;;;;;;;;;;;;25.76;44.04;100802.03;6310759;22;45274;-91
2021/09/18 15:06:18;;;;;;;;;;;;;;;25.79;44.60;100801.66;6310506;22;44688;-91
2021/09/18 15:08:48;;;;;;;;;;;;;;;25.80;43.90;100792.47;6309752;22;44683;-92
2021/09/18 15:11:13;;;;;;;;;;;;;;;25.92;44.12;100797.41;6310450;22;44826;-92
2021/09/18 15:13:38;;;;;;;;;;;;;;;25.99;44.77;100785.53;6310364;22;45100;-92
2021/09/18 15:16:04;;;;;;;;;;;;;;;26.09;44.27;100790.66;6308261;22;44665;-93
2021/09/18 15:18:31;;;;;;;;;;;;;;;26.14;43.88;100797.44;6338198;22;44713;-93
2021/09/18 15:20:56;;;;;;;;;;;;;;;26.29;44.20;100792.81;6312823;22;44793;-92
2021/09/18 15:23:24;;;;;;;;;;;;;;;26.40;42.95;100787.88;6339502;22;45298;-91
2021/09/18 15:25:50;;;;;;;;;;;;;;;26.37;43.52;100792.66;6314553;22;44671;-93
2021/09/18 15:28:18;;;;;;;;;;;;;;;26.40;44.05;100793.34;6310036;22;44700;-93
2021/09/18 15:30:43;;;;;;;;;;;;;;;26.40;43.22;100794.16;6308586;22;44754;-93
2021/09/18 15:33:11;;;;;;;;;;;;;;;26.34;43.43;100789.50;6308390;22;45128;-91
2021/09/18 15:35:42;;;;;;;;;;;;;;;26.18;43.13;100788.66;6337066;22;44763;-92
2021/09/18 15:38:07;;;;;;;;;;;;;;;26.08;43.82;100791.72;6313165;22;44653;-92
2021/09/18 15:40:35;;;;;;;;;;;;;;;25.95;44.52;100789.69;6341523;22;44807;-92
2021/09/18 15:43:06;;;;;;;;;;;;;;;25.94;43.96;100792.59;6338604;22;45443;-92
2021/09/18 15:45:36;;;;;;;;;;;;;;;25.88;43.37;100788.75;6367048;22;44600;-93
2021/09/18 15:48:08;;;;;;;;;;;;;;;25.89;43.93;100790.44;6314868;22;44695;-91
2021/09/18 15:50:36;;;;;;;;;;;;;;;25.80;44.35;100792.47;6314359;22;44709;-91
2021/09/18 15:53:03;;;;;;;;;;;;;;;25.69;44.17;100796.50;6338149;22;45554;-92
2021/09/18 15:55:30;;;;;;;;;;;;;;;25.47;45.08;100776.50;6338183;22;44607;-93
2021/09/18 15:57:58;;;;;;;;;;;;;;;25.35;44.64;100790.59;6314433;22;44593;-92
2021/09/18 16:00:25;;;;;;;;;;;;;;;25.21;45.09;100781.41;6339410;22;44830;-91
2021/09/18 16:02:53;;;;;;;;;;;;;;;25.09;45.64;100786.44;6312857;22;45110;-92
2021/09/18 16:05:20;;;;;;;;;;;;;;;25.00;45.86;100776.69;6337950;22;44669;-92
2021/09/18 16:07:46;;;;;;;;;;;;;;;24.93;45.35;100773.84;6312857;22;44634;-92
2021/09/18 16:10:14;;;;;;;;;;;;;;;24.85;45.51;100773.91;6312966;22;44800;-91
2021/09/18 16:12:40;;;;;;;;;;;;;;;24.82;45.33;100769.69;6312135;22;45249;-92
2021/09/18 16:15:11;;;;;;;;;;;;;;;24.75;45.53;100760.59;6309944;22;44781;-93
2021/09/18 16:17:37;;;;;;;;;;;;;;;24.69;46.08;100761.31;6309686;22;44657;-93
2021/09/18 16:20:04;;;;;;;;;;;;;;;24.65;45.31;100762.72;6336045;22;44753;-91
2021/09/18 16:22:30;;;;;;;;;122.83;122.83;;;;;24.38;46.57;100737.81;6306645;22;45291;-92
2021/09/18 16:24:55;;;;;;;;;;;;;;;24.52;46.53;100766.06;6283888;22;44723;-92
2021/09/18 16:27:24;;;;;;;;;;;;;;;24.46;46.11;100754.06;6309427;22;44748;-92
2021/09/18 16:29:53;;;;;;;;;;;;;;;24.48;46.65;100771.03;6335751;22;44860;-92
2021/09/18 16:32:19;;;;;;;;;;;;;;;24.37;47.38;100761.44;6334466;22;45065;-92
2021/09/18 16:34:46;;;;;;;;;;;;;;;24.38;47.25;100760.38;6308971;22;44673;-92
2021/09/18 16:37:19;;;;;;;;;;;;;;;24.33;46.63;100750.09;6364243;22;44742;-92
2021/09/18 16:39:51;;;;;;;;;;;;;;;24.40;47.42;100765.63;6338641;22;44833;-92
2021/09/18 16:42:22;;;;;;;;;;;;;;;24.30;46.51;100749.59;6311246;22;45133;-93
2021/09/18 16:44:51;;;;;;;;;;;;;;;24.26;46.31;100753.69;6340039;22;44788;-92
2021/09/18 16:47:18;;;;;;;;;;;;;;;24.21;46.73;100751.53;6293608;22;44617;-92
2021/09/18 16:49:49;;;;;;;;;;;;;;;24.17;46.48;100761.06;6252084;22;44798;-92
2021/09/18 16:52:20;;;;;;;;;;;;;;;24.12;47.34;100752.59;6276567;22;45363;-93
2021/09/18 16:54:47;;;;;;;;;;;;;;;24.04;46.89;100751.63;6251034;22;44702;-92
2021/09/18 16:57:24;;;;;;;;;;;;;;;24.03;48.10;100751.81;6277860;22;44781;-91
2021/09/18 16:59:51;;;;;;;;;;;;;;;24.02;47.19;100753.66;6273198;22;44798;-92
2021/09/18 17:02:20;;;;;;;;;;;;;;;23.96;47.61;100752.50;6277888;22;44977;-91
2021/09/18 17:04:47;;;;;;;;;;;;;;;23.93;47.57;100749.31;6307099;22;44642;-91
2021/09/18 17:07:17;;;;;;;;;108.83;108.83;;;;;23.67;47.47;100731.50;6251046;22;44753;-92
2021/09/18 17:23:00;;;;;;;;;;;;;;;23.74;47.69;100761.47;6289998;22;2674347;-91
2021/09/18 17:25:29;;;;;;;;;;;;;;;23.74;47.45;100772.31;6406259;22;44744;-91
2021/09/18 17:27:56;;;;;;;;;62.00;51.00;;;;;23.51;47.94;100741.38;6369708;22;44677;-91
2021/09/18 17:30:37;;;;;;;;;;;;;;;23.69;48.13;100768.28;6339779;22;44763;-90
2021/09/18 19:07:57;;;;;;;;;64.50;52.75;;;;;22.07;56.86;100810.41;5553786;22;15139732;-91
2021/09/18 19:10:23;;;;;;;;;29.71;28.00;;;;;21.77;56.44;100756.72;6209245;22;46094;-90
2021/09/18 19:15:28;;;;;;;;;58.80;49.20;;;;;21.70;56.79;100761.06;6327914;22;44902;-90
2021/09/18 19:18:11;;;;;;;;;65.00;53.40;;;;;21.83;56.63;100770.56;6315082;22;44689;-90
2021/09/18 19:20:39;;;;;;;;;;;;;;;22.03;57.03;100806.31;6292344;22;45083;-91
2021/09/18 19:23:07;;;;;;;;;60.00;49.75;;;;;21.66;57.05;100763.22;6338943;22;44686;-91
2021/09/18 19:25:42;;;;;;;;;;;;;;;21.96;56.96;100819.69;6316167;22;44755;-91
2021/09/18 19:28:24;;;;;;;;;63.80;52.80;;;;;21.82;57.04;100791.41;6337621;22;44792;-92
2021/09/18 19:31:09;;;;;;;;;;;;;;;21.94;57.34;100821.69;6343722;22;44924;-91
2021/09/18 19:41:26;;;;;;;;;61.00;50.20;;;;;21.90;57.16;100826.59;6194381;22;45075;-89
2021/09/18 19:43:59;;;;;;;;;;;;;;;21.91;57.62;100825.59;6266916;22;44629;-91
2021/09/18 19:59:22;;;;;;;;;51.00;44.00;;;;;21.46;58.26;100770.75;6334187;22;44751;-92
2021/09/18 20:01:50;;;;;;;;;155.50;155.50;;;;;21.62;58.15;100812.44;6337785;22;45465;-90
2021/09/18 20:04:22;;;;;;;;;64.20;52.40;;;;;21.59;58.19;100810.91;6319294;22;44700;-91
2021/09/18 20:09:37;;;;;;;;;60.00;49.50;;;;;21.25;58.86;100771.16;6327794;22;45868;-90
2021/09/18 20:12:09;;;;;;;;;13.80;12.80;;;;;21.03;58.29;100728.31;6300449;22;47255;-91
2021/09/18 20:14:39;;;;;;;;;65.00;53.60;;;;;21.21;59.34;100762.53;6326386;22;44787;-91
2021/09/18 20:20:03;;;;;;;;;11.83;10.33;;;;;21.31;58.77;100794.00;6324230;22;44930;-91
2021/09/18 20:22:28;;;;;;;;;62.20;51.40;;;;;;;;6280778;22;45069;-91
2021/09/18 20:56:29;;;;;;;;;;;;;;;21.02;60.80;100785.22;6373551;22;45955;-91
2021/09/18 21:38:12;;;;;;;;;66.40;55.00;;;;;20.64;62.43;100743.06;6330548;22;44693;-91
2021/09/18 22:35:32;;;;;;;;;;;;;;;20.22;64.00;100727.50;5628316;22;16055261;-90
2021/09/18 22:38:26;;;;;;;;;;;;;;;20.27;64.30;100736.00;6312996;22;45270;-91
2021/09/18 22:41:27;;;;;;;;;;;;;;;20.24;64.57;100725.50;6313384;22;44634;-90
2021/09/18 23:02:21;;;;;;;;;16.33;16.33;;;;;19.76;65.51;100669.88;6281428;22;44945;-91
2021/09/18 23:12:36;;;;;;;;;;;;;;;19.95;65.44;100710.38;6303457;22;44783;-90
2021/09/18 23:20:20;;;;;;;;;;;;;;;19.95;65.12;100721.97;6276126;22;46473;-90
